Time;durP1;ratioP1;P1;durP2;ratioP2;P2;SDS_P1;SDS_P2;PMS_P1;PMS_P2;Temp;Humidity;BMP_temperature;BMP_pressure;BME280_temperature;BME280_humidity;BME280_pressure;Samples;Min_cycle;Max_cycle;Signal;HPM_P1;HPM_P2
2021/07/21 00:00:53;;;;;;;1999.90;999.90;;;;;;;19.63;100.00;95600.44;5090946;28;20192;-66
2021/07/21 00:03:21;;;;;;;1999.90;999.90;;;;;;;19.55;100.00;95596.16;5091076;28;20788;-67
2021/07/21 00:05:49;;;;;;;1999.90;999.90;;;;;;;19.31;100.00;95601.66;5091168;28;20192;-67
2021/07/21 00:08:16;;;;;;;1999.90;999.90;;;;;;;19.32;100.00;95596.06;5091244;28;20660;-67
2021/07/21 00:10:44;;;;;;;1999.90;999.90;;;;;;;19.30;100.00;95603.53;5090745;28;20226;-67
2021/07/21 00:13:32;;;;;;;1999.90;999.90;;;;;;;19.38;100.00;95601.81;5090810;28;20203;-67
2021/07/21 00:16:12;;;;;;;1999.90;999.90;;;;;;;19.46;100.00;95610.66;5090794;28;20198;-67
2021/07/21 00:18:47;;;;;;;1999.90;999.90;;;;;;;19.47;100.00;95612.94;5090544;28;20183;-67
2021/07/21 00:21:16;;;;;;;1999.90;999.90;;;;;;;19.55;100.00;95609.34;5090668;28;20213;-67
2021/07/21 00:23:44;;;;;;;1999.90;999.90;;;;;;;19.53;100.00;95606.28;5090742;28;20199;-67
2021/07/21 00:26:11;;;;;;;1999.90;999.90;;;;;;;19.52;100.00;95612.69;5090799;28;20593;-67
2021/07/21 00:28:41;;;;;;;1999.90;999.90;;;;;;;19.53;100.00;95610.78;5090921;28;20249;-68
2021/07/21 00:31:10;;;;;;;1999.90;999.90;;;;;;;19.45;100.00;95609.88;5090456;28;20227;-67
2021/07/21 00:33:38;;;;;;;1999.90;999.90;;;;;;;19.32;100.00;95617.16;5090427;28;20210;-67
2021/07/21 00:36:05;;;;;;;1999.90;999.90;;;;;;;19.36;100.00;95617.22;5090361;28;20196;-67
2021/07/21 00:38:32;;;;;;;1999.90;999.90;;;;;;;19.43;100.00;95606.78;5090662;28;20191;-67
2021/07/21 00:40:59;;;;;;;1999.90;999.90;;;;;;;19.41;100.00;95614.31;5090283;28;20195;-67
2021/07/21 00:43:28;;;;;;;1999.90;999.90;;;;;;;19.45;100.00;95609.88;5090160;28;20192;-67
2021/07/21 00:45:55;;;;;;;1999.90;999.90;;;;;;;19.42;100.00;95601.88;5090082;28;20710;-68
2021/07/21 00:48:23;;;;;;;1999.90;999.90;;;;;;;19.43;100.00;95606.06;5090573;28;20207;-67
2021/07/21 00:50:54;;;;;;;1999.90;999.90;;;;;;;19.45;100.00;95609.88;5090366;28;20719;-66
2021/07/21 00:53:21;;;;;;;1999.90;999.90;;;;;;;19.49;100.00;95607.31;5089123;28;20184;-67
2021/07/21 00:55:48;;;;;;;1999.90;999.90;;;;;;;19.42;100.00;95610.56;5089873;28;20196;-67
2021/07/21 00:58:17;;;;;;;1999.90;999.90;;;;;;;19.35;100.00;95610.41;5090005;28;20286;-67
2021/07/21 01:00:44;;;;;;;1999.90;999.90;;;;;;;19.39;100.00;95605.19;5090214;28;20210;-67
2021/07/21 01:03:11;;;;;;;1999.90;999.90;;;;;;;19.31;100.00;95612.22;5089802;28;20589;-67
2021/07/21 01:05:44;;;;;;;1999.90;999.90;;;;;;;19.37;100.00;95610.84;5089733;28;20686;-68
2021/07/21 01:08:12;;;;;;;1999.90;999.90;;;;;;;19.32;100.00;95608.47;5089786;28;20192;-68
2021/07/21 01:10:42;;;;;;;1999.90;999.90;;;;;;;19.30;100.00;95608.03;5089681;28;20230;-68
2021/07/21 01:13:15;;;;;;;1999.90;999.90;;;;;;;19.28;100.00;95612.88;5090080;28;20292;-68
2021/07/21 01:15:48;;;;;;;1999.90;999.90;;;;;;;19.34;100.00;95619.41;5089681;28;20188;-68
2021/07/21 01:18:21;;;;;;;1999.90;999.90;;;;;;;19.28;100.00;95610.25;5089716;28;20194;-68
2021/07/21 01:21:27;;;;;;;1999.90;999.90;;;;;;;19.39;100.00;95613.88;5089633;28;20190;-68
2021/07/21 01:24:19;;;;;;;1999.90;999.90;;;;;;;19.42;100.00;95610.56;5089544;28;20195;-68
2021/07/21 01:26:54;;;;;;;1999.90;999.90;;;;;;;19.36;100.00;95619.84;5080484;28;20291;-68
2021/07/21 01:29:26;;;;;;;1999.90;999.90;;;;;;;19.33;100.00;95615.25;5089634;28;20180;-68
2021/07/21 01:31:56;;;;;;;1999.90;999.90;;;;;;;19.33;100.00;95618.66;5089499;28;20215;-67
2021/07/21 01:34:29;;;;;;;1999.90;999.90;;;;;;;19.27;100.00;95614.03;5089288;28;20200;-68
2021/07/21 01:36:57;;;;;;;1999.90;999.90;;;;;;;19.20;100.00;95619.13;5089664;28;20595;-69
2021/07/21 01:39:30;;;;;;;1999.90;999.90;;;;;;;19.18;100.00;95618.69;5089439;28;20199;-68
2021/07/21 01:42:02;;;;;;;1999.90;999.90;;;;;;;19.14;100.00;95602.81;5089303;28;20643;-67
2021/07/21 01:44:34;;;;;;;1999.90;999.90;;;;;;;19.12;100.00;95606.91;5089273;28;20191;-68
2021/07/21 01:47:02;;;;;;;1999.90;999.90;;;;;;;19.14;100.00;95605.47;5089502;28;20229;-68
2021/07/21 01:49:32;;;;;;;1999.90;999.90;;;;;;;19.31;100.00;95604.31;5089207;28;20200;-68
2021/07/21 01:52:02;;;;;;;1999.90;999.90;;;;;;;19.15;100.00;95611.50;5089126;28;20227;-68
2021/07/21 01:54:31;;;;;;;1999.90;999.90;;;;;;;19.08;100.00;95611.34;5089164;28;20648;-68
2021/07/21 01:57:00;;;;;;;1999.90;999.90;;;;;;;19.01;100.00;95606.69;5089175;28;20199;-69
2021/07/21 01:59:30;;;;;;;1999.90;999.90;;;;;;;18.82;100.00;95607.41;5088996;28;20196;-68
2021/07/21 02:02:01;;;;;;;1999.90;999.90;;;;;;;18.72;100.00;95607.94;5078466;28;20215;-68
2021/07/21 02:04:30;;;;;;;1999.90;999.90;;;;;;;18.74;100.00;95610.97;5096874;28;20236;-67
2021/07/21 02:06:58;;;;;;;1999.90;999.90;;;;;;;18.67;100.00;95605.56;5074369;28;20196;-65
2021/07/21 02:09:25;;;;;;;1999.90;999.90;;;;;;;18.67;100.00;95608.19;5068163;28;20800;-69
2021/07/21 02:11:53;;;;;;;1999.90;999.90;;;;;;;18.68;100.00;95611.59;5068187;28;20228;-69
2021/07/21 02:14:20;;;;;;;1999.90;999.90;;;;;;;18.70;100.00;95614.63;5090688;28;20199;-69
2021/07/21 02:16:48;;;;;;;1999.90;999.90;;;;;;;18.78;100.00;95609.19;5089717;28;20204;-68
2021/07/21 02:19:16;;;;;;;1999.90;999.90;;;;;;;18.81;100.00;95613.78;5088997;28;20586;-68
2021/07/21 02:21:45;;;;;;;1999.90;999.90;;;;;;;18.79;100.00;95617.84;5088149;28;20202;-68
2021/07/21 02:24:12;;;;;;;1999.90;999.90;;;;;;;18.84;100.00;95618.34;5088299;28;20207;-68
2021/07/21 02:26:41;;;;;;;1999.90;999.90;;;;;;;18.77;100.00;95618.22;5088606;28;20196;-70
2021/07/21 02:29:09;;;;;;;1999.90;999.90;;;;;;;18.75;100.00;95614.38;5088710;28;20204;-68
2021/07/21 02:31:43;;;;;;;1999.90;999.90;;;;;;;18.73;100.00;95616.59;5088389;28;20259;-69
2021/07/21 02:34:10;;;;;;;1999.90;999.90;;;;;;;18.78;100.00;95624.97;5088383;28;20671;-69
2021/07/21 02:36:40;;;;;;;1999.90;999.90;;;;;;;18.75;100.00;95625.69;5088537;28;20264;-67
2021/07/21 02:39:09;;;;;;;1999.90;999.90;;;;;;;18.66;100.00;95622.47;5088357;28;20707;-68
2021/07/21 02:41:38;;;;;;;1999.90;999.90;;;;;;;18.63;100.00;95617.88;5088826;28;20208;-68
2021/07/21 02:44:05;;;;;;;1999.90;999.90;;;;;;;18.55;100.00;95625.94;5088449;28;20222;-68
2021/07/21 02:46:32;;;;;;;1999.90;999.90;;;;;;;18.49;100.00;95628.81;5088122;28;20196;-70
2021/07/21 02:49:00;;;;;;;1999.90;999.90;;;;;;;18.47;100.00;95625.00;5088294;28;20204;-69
2021/07/21 02:51:33;;;;;;;1999.90;999.90;;;;;;;18.29;100.00;95623.78;5088073;28;20196;-68
2021/07/21 02:54:09;;;;;;;1999.90;999.90;;;;;;;18.29;100.00;95626.41;5088250;28;20200;-68
2021/07/21 02:56:42;;;;;;;1999.90;999.90;;;;;;;18.27;100.00;95634.66;5087891;28;20275;-72
2021/07/21 02:59:15;;;;;;;1999.90;999.90;;;;;;;18.27;100.00;95634.66;5088494;28;20629;-71
2021/07/21 03:01:47;;;;;;;1999.90;999.90;;;;;;;18.33;100.00;95629.91;5076314;28;20624;-70
2021/07/21 03:04:19;;;;;;;1999.90;999.90;;;;;;;18.26;100.00;95635.00;5047813;28;20681;-71
2021/07/21 03:06:49;;;;;;;1999.90;999.90;;;;;;;18.28;100.00;95628.28;5048260;28;20258;-72
2021/07/21 03:09:21;;;;;;;1999.90;999.90;;;;;;;18.15;100.00;95631.31;5043066;28;20202;-73
2021/07/21 03:11:52;;;;;;;1999.90;999.90;;;;;;;18.13;100.00;95636.94;5028306;28;20638;-72
2021/07/21 03:14:21;;;;;;;1999.90;999.90;;;;;;;18.12;100.00;95637.28;5028416;28;20263;-72
2021/07/21 03:16:51;;;;;;;1999.90;999.90;;;;;;;18.19;100.00;95632.16;5040742;28;20438;-70
2021/07/21 03:19:24;;;;;;;1999.90;999.90;;;;;;;18.28;100.00;95638.81;5051371;28;20207;-70
2021/07/21 03:21:53;;;;;;;1999.90;999.90;;;;;;;18.31;100.00;95642.63;5051520;28;20220;-71
2021/07/21 03:24:24;;;;;;;1999.90;999.90;;;;;;;18.42;100.00;95648.94;5051416;28;20197;-70
2021/07/21 03:26:53;;;;;;;1999.90;999.90;;;;;;;18.52;100.00;95651.06;5034637;28;20201;-70
2021/07/21 03:29:21;;;;;;;1999.90;999.90;;;;;;;18.51;100.00;95646.91;5031497;28;20202;-69
2021/07/21 03:31:49;;;;;;;1999.90;999.90;;;;;;;18.57;100.00;95656.09;5031301;28;20224;-70
2021/07/21 03:34:21;;;;;;;1999.90;999.90;;;;;;;18.62;100.00;95661.13;5052719;28;20208;-70
2021/07/21 03:36:51;;;;;;;1999.90;999.90;;;;;;;18.67;100.00;95670.63;5071662;28;20188;-70
2021/07/21 03:39:19;;;;;;;1999.90;999.90;;;;;;;18.75;100.00;95673.06;5070895;28;20189;-71
2021/07/21 03:41:49;;;;;;;1999.90;999.90;;;;;;;18.75;100.00;95677.56;5071296;28;20680;-69
2021/07/21 03:44:19;;;;;;;1999.90;999.90;;;;;;;18.76;100.00;95673.84;5065074;28;20208;-71
2021/07/21 03:46:47;;;;;;;1999.90;999.90;;;;;;;18.79;100.00;95683.69;5071238;28;20566;-70
2021/07/21 03:49:18;;;;;;;1999.90;999.90;;;;;;;18.83;100.00;95684.53;5070974;28;20631;-71
2021/07/21 03:51:46;;;;;;;1999.90;999.90;;;;;;;18.84;100.00;95686.06;5053179;28;20240;-71
2021/07/21 03:54:15;;;;;;;1999.90;999.90;;;;;;;18.76;100.00;95689.63;5039254;28;20585;-70
2021/07/21 03:56:45;;;;;;;1999.90;999.90;;;;;;;18.98;100.00;95683.00;5050904;28;20209;-70
2021/07/21 03:59:17;;;;;;;1999.90;999.90;;;;;;;18.97;100.00;95689.38;5049587;28;20232;-68
2021/07/21 04:01:45;;;;;;;1999.90;999.90;;;;;;;19.03;100.00;95694.03;5064389;28;20205;-68
2021/07/21 04:04:16;;;;;;;1999.90;999.90;;;;;;;19.02;100.00;95689.13;5070106;28;20204;-69
2021/07/21 04:06:44;;;;;;;1999.90;999.90;;;;;;;18.91;100.00;95700.16;5068115;28;20191;-68
2021/07/21 04:09:15;;;;;;;1999.90;999.90;;;;;;;18.89;100.00;95699.72;5069062;28;20576;-68
2021/07/21 04:11:44;;;;;;;1999.90;999.90;;;;;;;18.89;100.00;95697.09;5068711;28;20192;-68
2021/07/21 04:14:16;;;;;;;1999.90;999.90;;;;;;;18.80;100.00;95704.41;5077710;28;20607;-68
2021/07/21 04:16:44;;;;;;;1999.90;999.90;;;;;;;18.93;100.00;95708.47;5088908;28;20241;-69
2021/07/21 04:19:15;;;;;;;1999.90;999.90;;;;;;;19.04;100.00;95705.31;5089274;28;20256;-68
2021/07/21 04:21:46;;;;;;;1999.90;999.90;;;;;;;19.16;100.00;95715.78;5090667;28;20184;-67
2021/07/21 04:24:14;;;;;;;1999.90;999.90;;;;;;;19.27;100.00;95707.03;5090497;28;20568;-67
2021/07/21 04:26:42;;;;;;;1999.90;999.90;;;;;;;19.34;100.00;95703.75;5083071;28;20212;-67
2021/07/21 04:29:12;;;;;;;1999.90;999.90;;;;;;;19.39;100.00;95711.41;5086089;28;20204;-67
2021/07/21 04:31:42;;;;;;;1999.90;999.90;;;;;;;19.40;100.00;95704.25;5090483;28;20279;-67
2021/07/21 04:34:11;;;;;;;1999.90;999.90;;;;;;;19.78;100.00;95710.38;5090763;28;20192;-67
2021/07/21 04:36:40;;;;;;;1999.90;999.90;;;;;;;20.00;100.00;95716.06;5090451;28;20584;-67
2021/07/21 04:39:08;;;;;;;1999.90;999.90;;;;;;;20.30;100.00;95719.66;5090134;28;20200;-67
2021/07/21 04:41:36;;;;;;;1999.90;999.90;;;;;;;20.47;100.00;95715.84;5090495;28;20526;-67
2021/07/21 04:44:05;;;;;;;1999.90;999.90;;;;;;;20.76;100.00;95709.94;5090117;28;20204;-69
2021/07/21 04:46:33;;;;;;;1999.90;999.90;;;;;;;20.80;99.75;95715.28;5090136;28;20211;-67
2021/07/21 04:49:01;;;;;;;1999.90;999.90;;;;;;;20.86;98.97;95716.50;5090278;28;20204;-66
2021/07/21 04:51:31;;;;;;;1999.90;999.90;;;;;;;21.01;97.58;95719.03;5090375;28;20219;-66
2021/07/21 04:54:01;;;;;;;1999.90;999.90;;;;;;;20.92;97.88;95715.84;5090083;28;20245;-67
2021/07/21 04:56:28;;;;;;;1999.90;999.90;;;;;;;20.86;98.29;95721.78;5090216;28;20244;-67
2021/07/21 04:58:55;;;;;;;1999.90;999.90;;;;;;;20.83;97.39;95717.19;5090252;28;20208;-67
2021/07/21 05:01:23;;;;;;;1999.90;999.90;;;;;;;20.97;97.17;95718.19;5090059;28;20204;-67
2021/07/21 05:03:53;;;;;;;1999.90;999.90;;;;;;;21.03;96.46;95726.59;5089714;28;20231;-67
2021/07/21 05:06:23;;;;;;;1999.90;999.90;;;;;;;21.01;95.93;95724.31;5090197;28;20215;-67
2021/07/21 05:08:50;;;;;;;1999.90;999.90;;;;;;;21.21;96.06;95726.91;5090032;28;20196;-67
2021/07/21 05:11:18;;;;;;;1999.90;999.90;;;;;;;21.33;95.11;95729.34;5089715;28;20191;-68
2021/07/21 05:13:45;;;;;;;1999.90;999.90;;;;;;;21.35;94.86;95742.97;5089532;28;20219;-67
2021/07/21 05:16:12;;;;;;;1999.90;999.90;;;;;;;21.43;93.79;95734.00;5089767;28;20215;-68
2021/07/21 05:18:39;;;;;;;1999.90;999.90;;;;;;;21.47;92.95;95740.88;5089842;28;20671;-68
2021/07/21 05:21:07;;;;;;;1999.90;999.90;;;;;;;21.46;92.41;95734.09;5089321;28;20203;-67
2021/07/21 05:23:36;;;;;;;1999.90;999.90;;;;;;;21.53;91.26;95737.91;5089431;28;20207;-67
2021/07/21 05:26:05;;;;;;;1999.90;999.90;;;;;;;21.67;88.96;95738.13;5089201;28;20568;-68
2021/07/21 05:28:34;;;;;;;1999.90;999.90;;;;;;;21.58;89.36;95742.91;5089322;28;20289;-67
2021/07/21 05:31:01;;;;;;;1999.90;999.90;;;;;;;21.67;88.51;95738.13;5089614;28;20234;-68
2021/07/21 05:33:29;;;;;;;1999.90;999.90;;;;;;;21.52;85.00;95737.16;5089331;28;20779;-67
2021/07/21 05:35:56;;;;;;;1999.90;999.90;;;;;;;21.33;85.78;95742.56;5089519;28;20204;-68
2021/07/21 05:38:23;;;;;;;1999.90;999.90;;;;;;;21.45;84.71;95737.84;5089397;28;20273;-67
2021/07/21 05:40:51;;;;;;;1999.90;999.90;;;;;;;21.44;86.54;95743.47;5088846;28;20208;-67
2021/07/21 05:43:19;;;;;;;1999.90;999.90;;;;;;;21.62;85.41;95741.81;5089235;28;20199;-67
2021/07/21 05:45:46;;;;;;;1999.90;999.90;;;;;;;21.47;84.48;95740.09;5089451;28;20191;-67
2021/07/21 05:48:13;;;;;;;1999.90;999.90;;;;;;;21.59;85.17;95741.78;5089472;28;20196;-67
2021/07/21 05:50:40;;;;;;;1999.90;999.90;;;;;;;21.70;84.15;95742.69;5089342;28;20615;-67
2021/07/21 05:53:07;;;;;;;1999.90;999.90;;;;;;;21.71;81.93;95749.53;5088585;28;20216;-68
2021/07/21 05:55:34;;;;;;;1999.90;999.90;;;;;;;21.63;82.33;95748.66;5088803;28;20628;-68
2021/07/21 05:58:03;;;;;;;1999.90;999.90;;;;;;;21.63;82.33;95745.25;5089538;28;20196;-67
2021/07/21 06:00:31;;;;;;;1999.90;999.90;;;;;;;21.94;81.56;95755.50;5079924;28;20208;-67
2021/07/21 06:02:58;;;;;;;1999.90;999.90;;;;;;;21.67;81.07;95754.00;5088864;28;20318;-67
2021/07/21 06:05:25;;;;;;;1999.90;999.90;;;;;;;21.77;81.21;95756.00;5088923;28;20211;-67
2021/07/21 06:07:52;;;;;;;1999.90;999.90;;;;;;;21.87;79.64;95760.69;5089175;28;20294;-66
2021/07/21 06:10:19;;;;;;;1999.90;999.90;;;;;;;22.01;80.51;95758.25;5089000;28;20225;-67
2021/07/21 06:12:47;;;;;;;1999.90;999.90;;;;;;;21.96;78.57;95758.56;5089090;28;20228;-67
2021/07/21 06:15:15;;;;;;;1999.90;999.90;;;;;;;22.04;79.66;95754.13;5088824;28;20536;-67
2021/07/21 06:17:44;;;;;;;1999.90;999.90;;;;;;;22.22;77.67;95761.13;5088457;28;20196;-67
2021/07/21 06:20:12;;;;;;;1999.90;999.90;;;;;;;22.09;76.90;95767.81;5088850;28;20640;-66
2021/07/21 06:22:43;;;;;;;1999.90;999.90;;;;;;;21.99;75.67;95768.44;5089207;28;20203;-68
2021/07/21 06:25:11;;;;;;;1999.90;999.90;;;;;;;22.20;76.95;95774.00;5089164;28;20288;-67
2021/07/21 06:27:38;;;;;;;1999.90;999.90;;;;;;;22.10;76.10;95777.28;5088647;28;20476;-68
2021/07/21 06:30:08;;;;;;;1999.90;999.90;;;;;;;22.20;75.15;95776.66;5089038;28;20199;-68
2021/07/21 06:32:38;;;;;;;1999.90;999.90;;;;;;;22.46;76.14;95778.47;5088616;28;20203;-68
2021/07/21 06:35:06;;;;;;;1999.90;999.90;;;;;;;22.38;73.33;95778.72;5088660;28;20237;-68
2021/07/21 06:37:35;;;;;;;1999.90;999.90;;;;;;;22.29;73.55;95787.72;5088562;28;20192;-68
2021/07/21 06:40:02;;;;;;;1999.90;999.90;;;;;;;22.12;73.61;95779.53;5088953;28;20196;-68
2021/07/21 06:42:29;;;;;;;1999.90;999.90;;;;;;;22.36;76.84;95780.97;5088545;28;20196;-68
2021/07/21 06:44:56;;;;;;;1999.90;999.90;;;;;;;22.82;74.29;95776.94;5088515;28;20996;-68
2021/07/21 06:47:23;;;;;;;1999.90;999.90;;;;;;;23.05;72.64;95776.78;5088413;28;20203;-68
2021/07/21 06:49:52;;;;;;;1999.90;999.90;;;;;;;23.47;72.68;95776.34;5088817;28;20199;-68
2021/07/21 06:52:22;;;;;;;1999.90;999.90;;;;;;;23.79;71.28;95771.25;5091005;28;20949;-68
2021/07/21 06:54:50;;;;;;;1999.90;999.90;;;;;;;24.02;70.35;95777.81;5092263;28;20219;-68
2021/07/21 06:57:17;;;;;;;1999.90;999.90;;;;;;;23.50;68.39;95772.97;5092665;28;20199;-68
2021/07/21 06:59:44;;;;;;;1999.90;999.90;;;;;;;23.48;71.85;95769.94;5092211;28;20384;-68
2021/07/21 07:02:11;;;;;;;1999.90;999.90;;;;;;;23.67;70.96;95774.97;5092223;28;20304;-68
2021/07/21 07:04:38;;;;;;;1999.90;999.90;;;;;;;23.67;69.89;95772.31;5092454;28;20601;-68
2021/07/21 07:07:07;;;;;;;1999.90;999.90;;;;;;;23.57;68.85;95770.34;5092135;28;20686;-70
2021/07/21 07:09:34;;;;;;;1999.90;999.90;;;;;;;23.41;68.75;95769.88;5092062;28;20446;-70
2021/07/21 07:12:01;;;;;;;1999.90;999.90;;;;;;;23.33;69.54;95768.28;5091882;28;20248;-70
2021/07/21 07:14:28;;;;;;;1999.90;999.90;;;;;;;23.49;69.78;95768.81;5092033;28;20301;-70
2021/07/21 07:16:55;;;;;;;1999.90;999.90;;;;;;;23.50;68.11;95772.97;5092135;28;20195;-70
2021/07/21 07:19:23;;;;;;;1999.90;999.90;;;;;;;23.53;69.46;95774.88;5091929;28;20210;-70
2021/07/21 07:21:50;;;;;;;1999.90;999.90;;;;;;;23.52;68.41;95776.78;5091777;28;20195;-70
2021/07/21 07:24:18;;;;;;;1999.90;999.90;;;;;;;23.77;68.01;95790.19;5091899;28;20191;-71
2021/07/21 07:26:46;;;;;;;1999.90;999.90;;;;;;;23.71;66.56;95785.63;5091557;28;20578;-71
2021/07/21 07:29:13;;;;;;;1999.90;999.90;;;;;;;23.71;66.67;95778.41;5091983;28;20203;-70
2021/07/21 07:31:40;;;;;;;1999.90;999.90;;;;;;;23.74;67.73;95780.34;5092053;28;20195;-71
2021/07/21 07:34:07;;;;;;;1999.90;999.90;;;;;;;23.88;68.22;95777.00;5091530;28;20220;-71
2021/07/21 07:36:35;;;;;;;1999.90;999.90;;;;;;;24.00;65.60;95779.34;5091453;28;20204;-70
2021/07/21 07:39:02;;;;;;;1999.90;999.90;;;;;;;23.85;65.47;95778.50;5091493;28;20200;-71
2021/07/21 07:41:30;;;;;;;1999.90;999.90;;;;;;;23.95;66.03;95772.50;5091698;28;20200;-70
2021/07/21 07:43:57;;;;;;;1999.90;999.90;;;;;;;23.99;64.44;95780.47;5091403;28;20244;-70
2021/07/21 07:46:27;;;;;;;1999.90;999.90;;;;;;;24.32;64.30;95771.50;5091532;28;20267;-70
2021/07/21 07:48:55;;;;;;;1999.90;999.90;;;;;;;24.29;65.45;95767.72;5091326;28;20204;-69
2021/07/21 07:51:22;;;;;;;1999.90;999.90;;;;;;;24.38;63.43;95772.69;5091498;28;20195;-70
2021/07/21 07:53:49;;;;;;;1999.90;999.90;;;;;;;24.48;62.49;95774.59;5091110;28;20220;-70
2021/07/21 07:56:16;;;;;;;1999.90;999.90;;;;;;;24.26;62.78;95765.06;5091158;28;20200;-69
2021/07/21 07:58:45;;;;;;;1999.90;999.90;;;;;;;24.14;63.72;95766.13;5091483;28;20792;-69
2021/07/21 08:01:12;;;;;;;1999.90;999.90;;;;;;;24.42;64.22;95766.25;5090999;28;20199;-69
2021/07/21 08:03:39;;;;;;;1999.90;999.90;;;;;;;24.36;63.38;95761.66;5090634;28;20231;-69
2021/07/21 08:06:07;;;;;;;1999.90;999.90;;;;;;;24.48;62.36;95763.97;5091456;28;20207;-69
2021/07/21 08:08:34;;;;;;;1999.90;999.90;;;;;;;24.53;62.18;95773.47;5090903;28;20200;-70
2021/07/21 08:11:01;;;;;;;1999.90;999.90;;;;;;;24.51;61.11;95771.19;5089816;28;20196;-70
2021/07/21 08:13:29;;;;;;;1999.90;999.90;;;;;;;24.77;64.00;95765.56;5091065;28;20223;-69
2021/07/21 08:15:58;;;;;;;1999.90;999.90;;;;;;;24.67;62.03;95774.28;5090789;28;20196;-70
2021/07/21 08:18:26;;;;;;;1999.90;999.90;;;;;;;24.67;61.89;95774.28;5090868;28;20200;-70
2021/07/21 08:20:53;;;;;;;1999.90;999.90;;;;;;;24.88;63.92;95776.25;5089548;28;20702;-70
2021/07/21 08:23:20;;;;;;;1999.90;999.90;;;;;;;24.96;60.41;95771.69;5070718;28;20756;-70
2021/07/21 08:25:47;;;;;;;1999.90;999.90;;;;;;;24.76;59.89;95779.22;5070939;28;20211;-70
2021/07/21 08:28:15;;;;;;;1999.90;999.90;;;;;;;25.01;62.62;95773.97;5070585;28;20200;-70
2021/07/21 08:30:42;;;;;;;1999.90;999.90;;;;;;;24.99;59.96;95784.25;5070249;28;20234;-70
2021/07/21 08:33:12;;;;;;;1999.90;999.90;;;;;;;24.68;58.64;95783.78;5070128;28;20581;-70
2021/07/21 08:35:40;;;;;;;1999.90;999.90;;;;;;;24.76;60.58;95782.63;5070167;28;20196;-71
2021/07/21 08:38:07;;;;;;;1999.90;999.90;;;;;;;24.80;59.40;95785.31;5070394;28;20235;-70
2021/07/21 08:40:35;;;;;;;1999.90;999.90;;;;;;;24.69;59.45;95784.53;5070176;28;20224;-69
2021/07/21 08:43:04;;;;;;;1999.90;999.90;;;;;;;24.69;58.75;95774.66;5070390;28;20200;-70
2021/07/21 08:45:31;;;;;;;1999.90;999.90;;;;;;;24.86;61.07;95787.22;5070114;28;20680;-71
2021/07/21 08:47:58;;;;;;;1999.90;999.90;;;;;;;24.92;58.66;95776.25;5070326;28;20258;-69
2021/07/21 08:50:27;;;;;;;1999.90;999.90;;;;;;;24.89;56.95;95777.00;5070618;28;20200;-67
2021/07/21 08:52:56;;;;;;;1999.90;999.90;;;;;;;24.97;59.49;95768.66;5079656;28;20199;-70
2021/07/21 08:55:25;;;;;;;1999.90;999.90;;;;;;;25.08;59.68;95773.97;5090307;28;20606;-69
2021/07/21 08:57:53;;;;;;;1999.90;999.90;;;;;;;25.06;58.85;95763.72;5090320;28;20200;-69
2021/07/21 09:00:20;;;;;;;1999.90;999.90;;;;;;;25.26;58.84;95766.75;5090301;28;20532;-69
2021/07/21 09:02:48;;;;;;;1999.90;999.90;;;;;;;25.33;58.37;95769.41;5089944;28;20663;-69
2021/07/21 09:05:17;;;;;;;1999.90;999.90;;;;;;;25.26;56.88;95758.78;5090107;28;20198;-69
2021/07/21 09:07:47;;;;;;;1999.90;999.90;;;;;;;25.48;57.50;95746.22;5090133;28;20199;-69
2021/07/21 09:10:16;;;;;;;1999.90;999.90;;;;;;;25.38;55.42;95753.06;5089755;28;20203;-69
2021/07/21 09:12:46;;;;;;;1999.90;999.90;;;;;;;25.46;56.36;95751.16;5089766;28;20207;-69
2021/07/21 09:15:14;;;;;;;1999.90;999.90;;;;;;;25.55;55.88;95749.66;5089384;28;20627;-69
2021/07/21 09:18:05;;;;;;;1999.90;999.90;;;;;;;25.63;55.10;95747.72;5089655;28;20249;-69
2021/07/21 09:20:34;;;;;;;1999.90;999.90;;;;;;;25.73;53.12;95738.19;5089833;28;20180;-69
2021/07/21 09:23:03;;;;;;;1999.90;999.90;;;;;;;25.50;54.00;95742.03;5089916;28;20318;-69
2021/07/21 09:25:33;;;;;;;1999.90;999.90;;;;;;;25.56;54.51;95745.06;5089885;28;20207;-69
2021/07/21 09:28:02;;;;;;;1999.90;999.90;;;;;;;25.36;55.38;95750.03;5089699;28;20672;-68
2021/07/21 09:30:34;;;;;;;1999.90;999.90;;;;;;;25.76;55.62;95730.19;5089468;28;20625;-69
2021/07/21 09:33:03;;;;;;;1999.90;999.90;;;;;;;25.51;51.46;95748.09;5089482;28;20595;-69
2021/07/21 09:35:32;;;;;;;1999.90;999.90;;;;;;;25.64;53.06;95736.72;5089238;28;20739;-69
2021/07/21 09:38:04;;;;;;;1999.90;999.90;;;;;;;25.44;50.63;95738.25;5089619;28;20214;-69
2021/07/21 09:40:31;;;;;;;1999.90;999.90;;;;;;;25.45;53.99;95723.78;5089524;28;20180;-69
2021/07/21 09:42:58;;;;;;;1999.90;999.90;;;;;;;25.45;50.83;95728.34;5089245;28;20253;-69
2021/07/21 09:45:26;;;;;;;1999.90;999.90;;;;;;;25.78;54.51;95740.47;5089617;28;20614;-69
2021/07/21 09:47:55;;;;;;;1999.90;999.90;;;;;;;25.96;52.19;95730.50;5089479;28;20553;-69
2021/07/21 09:50:25;;;;;;;1999.90;999.90;;;;;;;26.06;50.87;95724.38;5089254;28;20210;-69
2021/07/21 09:52:55;;;;;;;1999.90;999.90;;;;;;;26.08;52.77;95730.84;5089017;28;20288;-69
2021/07/21 09:55:25;;;;;;;1999.90;999.90;;;;;;;26.14;50.61;95729.31;5089234;28;20212;-69
2021/07/21 09:58:03;;;;;;;1999.90;999.90;;;;;;;26.44;52.66;95731.47;5088996;28;20188;-69
2021/07/21 10:00:33;;;;;;;1999.90;999.90;;;;;;;26.25;49.08;95731.94;5088987;28;20701;-69
2021/07/21 10:03:12;;;;;;;1999.90;999.90;;;;;;;26.21;48.72;95717.84;5088726;28;20231;-69
2021/07/21 10:06:07;;;;;;;1999.90;999.90;;;;;;;26.17;46.43;95724.34;5088960;28;20191;-69
2021/07/21 10:08:40;;;;;;;1999.90;999.90;;;;;;;25.97;49.40;95721.38;5053004;28;20264;-69
2021/07/21 10:11:26;;;;;;;1999.90;999.90;;;;;;;25.90;49.12;95724.09;5089137;28;20210;-69
2021/07/21 10:13:56;;;;;;;1999.90;999.90;;;;;;;25.93;48.92;95718.75;5089251;28;20580;-69
2021/07/21 10:16:36;;;;;;;1999.90;999.90;;;;;;;26.07;50.40;95725.91;5088497;28;20253;-68
2021/07/21 10:19:05;;;;;;;1999.90;999.90;;;;;;;25.92;50.95;95724.44;5089111;28;20188;-68
2021/07/21 10:21:32;;;;;;;1999.90;999.90;;;;;;;25.68;48.31;95734.03;5088774;28;20200;-69
2021/07/21 10:23:59;;;;;;;1999.90;999.90;;;;;;;25.74;51.59;95724.50;5088935;28;20192;-69
2021/07/21 10:26:29;;;;;;;1999.90;999.90;;;;;;;25.91;49.96;95722.91;5091614;28;20229;-69
2021/07/21 10:28:57;;;;;;;1999.90;999.90;;;;;;;25.85;52.41;95717.25;5093002;28;20594;-69
2021/07/21 10:31:25;;;;;;;1999.90;999.90;;;;;;;25.89;50.33;95726.00;5092731;28;20199;-70
2021/07/21 10:33:53;;;;;;;1999.90;999.90;;;;;;;25.97;49.92;95716.06;5093159;28;20575;-71
2021/07/21 10:36:21;;;;;;;1999.90;999.90;;;;;;;26.05;50.29;95720.97;5092759;28;20253;-70
2021/07/21 10:38:49;;;;;;;1999.90;999.90;;;;;;;26.22;49.97;95723.97;5092698;28;20207;-70
2021/07/21 10:41:17;;;;;;;1999.90;999.90;;;;;;;26.22;50.00;95718.63;5092678;28;20714;-70
2021/07/21 10:43:48;;;;;;;1999.90;999.90;;;;;;;25.82;48.42;95711.91;5092838;28;20196;-70
2021/07/21 10:46:34;;;;;;;1999.90;999.90;;;;;;;25.77;49.33;95713.09;5092420;28;20237;-70
2021/07/21 10:49:18;;;;;;;1999.90;999.90;;;;;;;25.84;48.92;95717.63;5092504;28;20237;-70
2021/07/21 10:54:53;;;;;;;1999.90;999.90;;;;;;;25.95;48.52;95719.09;5072252;28;20245;-70
2021/07/21 11:00:13;;;;;;;1999.90;999.90;;;;;;;26.01;48.02;95716.78;5072208;28;20335;-70
2021/07/21 11:02:41;;;;;;;1999.90;999.90;;;;;;;26.04;47.53;95708.03;5072076;28;20236;-71
2021/07/21 11:05:30;;;;;;;1999.90;999.90;;;;;;;25.89;48.50;95717.25;5072169;28;20281;-70
2021/07/21 11:07:58;;;;;;;1999.90;999.90;;;;;;;25.93;45.79;95710.75;5071823;28;20634;-70